Time;durP1;ratioP1;P1;durP2;ratioP2;P2;SDS_P1;SDS_P2;PMS_P1;PMS_P2;Temp;Humidity;BMP_temperature;BMP_pressure;BME280_temperature;BME280_humidity;BME280_pressure;Samples;Min_cycle;Max_cycle;Signal;HPM_P1;HPM_P2
2022/10/05 00:00:53;;;;;;;7.88;7.38;;;;;;;;;;4976563;28;20039;-65
2022/10/05 00:03:21;;;;;;;8.05;7.47;;;;;;;;;;4982109;28;20042;-66
2022/10/05 00:05:47;;;;;;;6.78;6.28;;;;;;;;;;4981019;28;20077;-65
2022/10/05 00:08:18;;;;;;;7.32;6.82;;;;;;;;;;4978392;28;20129;-64
2022/10/05 00:10:44;;;;;;;8.18;7.63;;;;;;;;;;4993713;28;20110;-64
2022/10/05 00:13:16;;;;;;;7.22;6.72;;;;;;;;;;4982293;28;20027;-64
2022/10/05 00:15:42;;;;;;;6.80;6.30;;;;;;;;;;4986909;28;20030;-64
2022/10/05 00:18:26;;;;;;;7.85;7.35;;;;;;;;;;4981386;28;20176;-64
2022/10/05 00:20:51;;;;;;;7.72;7.13;;;;;;;;;;4975161;28;20396;-64
2022/10/05 00:23:28;;;;;;;7.20;6.70;;;;;;;;;;4976345;28;20052;-64
2022/10/05 00:25:53;;;;;;;7.28;6.78;;;;;;;;;;4976097;28;20034;-64
2022/10/05 00:28:29;;;;;;;6.20;5.80;;;;;;;;;;4978342;28;20716;-63
2022/10/05 00:30:56;;;;;;;7.07;6.57;;;;;;;;;;4981829;28;20258;-64
2022/10/05 00:33:22;;;;;;;6.18;5.72;;;;;;;;;;4984942;28;20038;-64
2022/10/05 00:35:47;;;;;;;6.90;6.40;;;;;;;;;;4980038;28;20045;-64
2022/10/05 00:38:13;;;;;;;7.30;6.70;;;;;;;;;;4976670;28;20035;-63
2022/10/05 00:41:06;;;;;;;6.45;5.95;;;;;;;;;;4974053;28;20073;-64
2022/10/05 00:43:51;;;;;;;7.40;6.82;;;;;;;;;;4979558;28;20038;-64
2022/10/05 00:46:24;;;;;;;6.53;6.03;;;;;;;;;;4981310;28;20425;-64
2022/10/05 00:48:52;;;;;;;6.68;6.07;;;;;;;;;;4979266;28;20096;-63
2022/10/05 00:51:20;;;;;;;7.07;6.57;;;;;;;;;;4981527;28;20362;-64
2022/10/05 00:54:07;;;;;;;6.65;6.15;;;;;;;;;;4979398;28;20067;-66
2022/10/05 00:56:56;;;;;;;6.68;6.18;;;;;;;;;;4977163;28;20029;-65
2022/10/05 00:59:31;;;;;;;6.18;5.68;;;;;;;;;;4980276;28;20065;-64
2022/10/05 01:02:09;;;;;;;6.22;5.82;;;;;;;;;;4976159;28;20113;-64
2022/10/05 01:04:38;;;;;;;6.97;6.47;;;;;;;;;;4977910;28;20041;-65
2022/10/05 01:07:35;;;;;;;12.15;8.27;;;;;;;;;;4976289;28;20037;-63
2022/10/05 01:10:10;;;;;;;6.70;6.20;;;;;;;;;;4977553;28;20471;-65
2022/10/05 01:13:13;;;;;;;6.93;6.43;;;;;;;;;;4978843;28;20227;-63
2022/10/05 01:16:05;;;;;;;5.78;5.38;;;;;;;;;;4982524;28;20034;-63
2022/10/05 01:18:41;;;;;;;6.97;6.28;;;;;;;;;;4979410;28;20109;-65
2022/10/05 01:21:20;;;;;;;6.78;6.28;;;;;;;;;;4979069;28;20121;-64
2022/10/05 01:24:18;;;;;;;7.07;6.57;;;;;;;;;;4985398;28;20054;-65
2022/10/05 01:27:14;;;;;;;6.70;6.20;;;;;;;;;;4978103;28;20396;-65
2022/10/05 01:29:46;;;;;;;7.40;6.90;;;;;;;;;;4975629;28;20118;-65
2022/10/05 01:32:39;;;;;;;6.93;6.43;;;;;;;;;;4975077;28;20026;-65
2022/10/05 01:35:22;;;;;;;7.18;6.68;;;;;;;;;;4975254;28;20207;-65
2022/10/05 01:37:48;;;;;;;6.05;5.55;;;;;;;;;;4976707;28;20461;-64
2022/10/05 01:40:32;;;;;;;6.60;6.15;;;;;;;;;;4976961;28;20045;-65
2022/10/05 01:43:02;;;;;;;6.22;5.82;;;;;;;;;;4976911;28;20121;-64
2022/10/05 01:45:34;;;;;;;6.35;5.90;;;;;;;;;;4980889;28;20030;-64
2022/10/05 01:48:12;;;;;;;6.45;5.95;;;;;;;;;;4974925;28;20034;-63
2022/10/05 01:50:56;;;;;;;7.13;6.60;;;;;;;;;;4977749;28;20030;-64
2022/10/05 01:53:34;;;;;;;6.55;6.05;;;;;;;;;;4976358;28;20058;-65
2022/10/05 01:56:12;;;;;;;6.95;6.45;;;;;;;;;;4976911;28;20034;-65
2022/10/05 01:58:49;;;;;;;6.07;5.68;;;;;;;;;;4979405;28;20833;-65
2022/10/05 02:01:34;;;;;;;6.15;5.75;;;;;;;;;;4976862;28;20050;-64
2022/10/05 02:04:06;;;;;;;6.78;6.28;;;;;;;;;;4977788;28;20060;-65
2022/10/05 02:06:41;;;;;;;7.13;6.53;;;;;;;;;;4979587;28;20475;-64
2022/10/05 02:09:14;;;;;;;6.35;5.95;;;;;;;;;;4976121;28;20042;-64
2022/10/05 02:11:44;;;;;;;7.10;6.50;;;;;;;;;;4975381;28;20034;-64
2022/10/05 02:14:11;;;;;;;6.97;6.47;;;;;;;;;;4978244;28;20037;-64
2022/10/05 02:16:42;;;;;;;7.95;6.78;;;;;;;;;;4983429;28;20535;-64
2022/10/05 02:19:19;;;;;;;6.85;6.35;;;;;;;;;;4976965;28;20374;-64
2022/10/05 02:21:50;;;;;;;6.93;6.43;;;;;;;;;;4975547;28;20393;-65
2022/10/05 02:24:22;;;;;;;7.45;6.93;;;;;;;;;;4979113;28;20632;-64
2022/10/05 02:26:50;;;;;;;8.40;7.60;;;;;;;;;;4974639;28;20162;-64
2022/10/05 02:29:18;;;;;;;7.13;6.53;;;;;;;;;;4976927;28;20562;-65
2022/10/05 02:31:52;;;;;;;6.60;6.10;;;;;;;;;;4973030;28;20215;-64
2022/10/05 02:34:19;;;;;;;7.53;7.03;;;;;;;;;;4974802;28;20041;-64
2022/10/05 02:36:52;;;;;;;7.60;7.00;;;;;;;;;;4973946;28;20366;-64
2022/10/05 02:39:33;;;;;;;7.55;7.05;;;;;;;;;;4976334;28;20050;-64
2022/10/05 02:42:01;;;;;;;7.60;7.10;;;;;;;;;;4977767;28;20042;-64
2022/10/05 02:44:57;;;;;;;8.18;7.68;;;;;;;;;;4989966;28;20484;-64
2022/10/05 02:47:35;;;;;;;7.45;6.95;;;;;;;;;;4971879;28;20041;-64
2022/10/05 02:50:23;;;;;;;7.22;6.72;;;;;;;;;;4986984;28;20061;-64
2022/10/05 02:53:31;;;;;;;13.48;7.18;;;;;;;;;;4974079;28;20091;-63
2022/10/05 02:55:56;;;;;;;7.25;6.68;;;;;;;;;;4977296;28;20475;-64
2022/10/05 02:58:26;;;;;;;8.80;8.20;;;;;;;;;;4977004;28;20038;-64
2022/10/05 03:01:01;;;;;;;8.27;7.68;;;;;;;;;;4976175;28;20034;-63
2022/10/05 03:03:40;;;;;;;7.82;7.32;;;;;;;;;;4975227;28;20025;-64
2022/10/05 03:06:28;;;;;;;7.72;7.18;;;;;;;;;;4975888;28;20041;-64
2022/10/05 03:09:02;;;;;;;7.47;6.97;;;;;;;;;;4973613;28;20043;-64
2022/10/05 03:11:48;;;;;;;8.23;7.63;;;;;;;;;;4984026;28;20398;-64
2022/10/05 03:14:23;;;;;;;8.77;8.13;;;;;;;;;;4979169;28;20022;-64
2022/10/05 03:17:11;;;;;;;8.35;7.75;;;;;;;;;;4975098;28;20074;-64
2022/10/05 03:19:54;;;;;;;7.55;7.05;;;;;;;;;;4977646;28;20049;-65
2022/10/05 03:22:41;;;;;;;7.90;7.30;;;;;;;;;;4980379;28;20027;-65
2022/10/05 03:25:48;;;;;;;7.75;7.25;;;;;;;;;;4971797;28;20038;-64
2022/10/05 03:28:37;;;;;;;8.70;8.10;;;;;;;;;;4978433;28;20070;-64
2022/10/05 03:31:13;;;;;;;8.70;8.10;;;;;;;;;;4978545;28;20034;-64
2022/10/05 03:34:05;;;;;;;8.40;7.80;;;;;;;;;;4975042;28;20520;-65
2022/10/05 03:36:52;;;;;;;10.77;9.32;;;;;;;;;;4975302;28;20042;-64
2022/10/05 03:40:03;;;;;;;10.15;9.45;;;;;;;;;;4976701;28;20030;-64
2022/10/05 03:42:39;;;;;;;10.10;9.40;;;;;;;;;;4962993;28;20074;-64
2022/10/05 03:45:16;;;;;;;9.70;9.00;;;;;;;;;;4972005;28;20039;-63
2022/10/05 03:48:01;;;;;;;11.10;10.02;;;;;;;;;;4976040;28;20455;-63
2022/10/05 03:50:42;;;;;;;9.82;9.13;;;;;;;;;;4981207;28;20109;-63
2022/10/05 03:53:22;;;;;;;9.60;8.90;;;;;;;;;;4973476;28;20035;-63
2022/10/05 03:55:58;;;;;;;9.40;8.45;;;;;;;;;;4978298;28;20042;-64
2022/10/05 03:58:58;;;;;;;8.75;8.07;;;;;;;;;;4980700;28;20038;-63
2022/10/05 04:01:32;;;;;;;8.65;8.07;;;;;;;;;;4980893;28;20042;-63
2022/10/05 04:04:03;;;;;;;10.32;9.50;;;;;;;;;;4979171;28;20524;-64
2022/10/05 04:06:42;;;;;;;9.43;8.52;;;;;;;;;;4983501;28;20038;-65
2022/10/05 04:09:17;;;;;;;8.88;8.18;;;;;;;;;;4982462;28;20031;-64
2022/10/05 04:11:54;;;;;;;9.63;8.82;;;;;;;;;;4978363;28;20395;-64
2022/10/05 04:14:24;;;;;;;8.68;8.07;;;;;;;;;;4979064;28;20046;-65
2022/10/05 04:17:08;;;;;;;8.13;7.53;;;;;;;;;;4978449;28;20145;-64
2022/10/05 04:19:55;;;;;;;8.40;7.65;;;;;;;;;;4980755;28;20105;-63
2022/10/05 04:22:26;;;;;;;7.85;7.25;;;;;;;;;;4979575;28;20038;-61
2022/10/05 04:24:57;;;;;;;8.88;8.18;;;;;;;;;;4978739;28;20602;-63
2022/10/05 04:27:30;;;;;;;9.18;8.57;;;;;;;;;;4977327;28;20062;-63
2022/10/05 04:30:02;;;;;;;10.68;9.57;;;;;;;;;;4980812;28;20058;-63
2022/10/05 04:32:35;;;;;;;9.52;8.73;;;;;;;;;;4977096;28;20026;-63
2022/10/05 04:35:25;;;;;;;8.65;7.95;;;;;;;;;;4974487;28;20026;-63
2022/10/05 04:38:09;;;;;;;8.60;7.95;;;;;;;;;;4981449;28;20049;-63
2022/10/05 04:41:15;;;;;;;10.30;8.75;;;;;;;;;;4977874;28;20568;-63
2022/10/05 04:44:11;;;;;;;7.53;6.93;;;;;;;;;;4975728;28;20030;-63
2022/10/05 04:47:07;;;;;;;8.25;7.60;;;;;;;;;;4981192;28;20041;-63
2022/10/05 04:49:54;;;;;;;9.70;8.80;;;;;;;;;;4977957;28;20042;-64
2022/10/05 04:53:08;;;;;;;8.73;7.88;;;;;;;;;;4978807;28;20035;-63
2022/10/05 04:55:39;;;;;;;7.03;6.53;;;;;;;;;;4976094;28;20054;-63
2022/10/05 04:58:09;;;;;;;8.73;8.02;;;;;;;;;;4975121;28;20042;-63
2022/10/05 05:00:53;;;;;;;8.20;7.60;;;;;;;;;;4978298;28;20018;-63
2022/10/05 05:03:48;;;;;;;9.13;8.43;;;;;;;;;;4983317;28;20065;-64
2022/10/05 05:06:31;;;;;;;9.18;8.48;;;;;;;;;;4977525;28;20039;-64
2022/10/05 05:09:02;;;;;;;8.32;7.75;;;;;;;;;;4978214;28;20411;-63
2022/10/05 05:11:40;;;;;;;9.93;9.13;;;;;;;;;;4977827;28;20049;-65
2022/10/05 05:14:12;;;;;;;7.95;7.25;;;;;;;;;;4979093;28;20453;-64
2022/10/05 05:16:41;;;;;;;8.82;8.15;;;;;;;;;;4979250;28;20435;-63
2022/10/05 05:19:22;;;;;;;10.00;9.23;;;;;;;;;;4979559;28;20022;-63
2022/10/05 05:22:05;;;;;;;10.52;9.52;;;;;;;;;;4978308;28;20114;-64
2022/10/05 05:24:54;;;;;;;9.82;9.13;;;;;;;;;;4980911;28;20102;-65
2022/10/05 05:27:36;;;;;;;9.32;8.70;;;;;;;;;;4979100;28;20109;-64
2022/10/05 05:30:20;;;;;;;10.63;9.88;;;;;;;;;;4980701;28;20104;-64
2022/10/05 05:33:04;;;;;;;10.52;9.80;;;;;;;;;;4976048;28;20050;-64
2022/10/05 05:35:48;;;;;;;10.73;9.93;;;;;;;;;;4982135;28;20100;-64
2022/10/05 05:38:31;;;;;;;9.65;8.95;;;;;;;;;;4978825;28;20049;-64
2022/10/05 05:41:08;;;;;;;9.65;8.95;;;;;;;;;;4977469;28;20035;-65
2022/10/05 05:43:59;;;;;;;8.43;7.82;;;;;;;;;;4973804;28;20027;-65
2022/10/05 05:46:32;;;;;;;8.23;7.63;;;;;;;;;;4981693;28;20065;-65
2022/10/05 05:48:57;;;;;;;8.55;7.95;;;;;;;;;;4979677;28;20787;-65
2022/10/05 05:51:38;;;;;;;8.70;8.10;;;;;;;;;;4977609;28;20170;-64
2022/10/05 05:54:15;;;;;;;8.77;8.10;;;;;;;;;;4978533;28;20048;-65
2022/10/05 05:56:46;;;;;;;8.02;7.40;;;;;;;;;;4976655;28;20049;-65
2022/10/05 05:59:16;;;;;;;8.00;7.50;;;;;;;;;;4978640;28;20046;-65
2022/10/05 06:01:50;;;;;;;9.73;9.00;;;;;;;;;;4987681;28;20038;-65
2022/10/05 06:04:44;;;;;;;10.75;9.93;;;;;;;;;;4978436;28;20042;-65
2022/10/05 06:07:17;;;;;;;9.05;8.35;;;;;;;;;;4979721;28;20057;-65
2022/10/05 06:09:49;;;;;;;8.70;8.10;;;;;;;;;;4974198;28;20035;-64
2022/10/05 06:12:21;;;;;;;9.65;8.95;;;;;;;;;;4976694;28;20022;-65
2022/10/05 06:14:51;;;;;;;11.50;10.70;;;;;;;;;;4979492;28;20084;-65
2022/10/05 06:17:22;;;;;;;9.73;9.00;;;;;;;;;;4975450;28;20125;-65
2022/10/05 06:19:52;;;;;;;9.75;9.05;;;;;;;;;;4978651;28;20093;-65
2022/10/05 06:22:29;;;;;;;12.05;11.15;;;;;;;;;;4978851;28;20031;-64
2022/10/05 06:25:12;;;;;;;10.82;10.05;;;;;;;;;;4977818;28;20119;-64
2022/10/05 06:28:02;;;;;;;12.00;11.13;;;;;;;;;;4979389;28;20085;-64
2022/10/05 06:31:02;;;;;;;11.23;10.43;;;;;;;;;;4975589;28;20226;-64
2022/10/05 06:34:13;;;;;;;9.68;9.07;;;;;;;;;;4964064;28;20034;-64
2022/10/05 06:36:51;;;;;;;11.88;10.88;;;;;;;;;;4968763;28;20133;-64
2022/10/05 06:39:50;;;;;;;11.07;10.23;;;;;;;;;;4973100;28;20121;-64
2022/10/05 06:42:33;;;;;;;11.43;10.63;;;;;;;;;;4977435;28;20022;-64
2022/10/05 06:45:18;;;;;;;9.60;9.00;;;;;;;;;;4973555;28;20460;-64
2022/10/05 06:48:05;;;;;;;11.13;10.32;;;;;;;;;;4975253;28;20019;-64
2022/10/05 06:50:35;;;;;;;10.80;10.10;;;;;;;;;;4975346;28;20018;-64
2022/10/05 06:53:24;;;;;;;10.13;9.45;;;;;;;;;;4978148;28;20039;-63
2022/10/05 06:55:54;;;;;;;11.32;10.43;;;;;;;;;;4977844;28;20050;-64
2022/10/05 06:58:56;;;;;;;11.85;10.88;;;;;;;;;;4978362;28;20034;-64
2022/10/05 07:01:33;;;;;;;10.82;10.10;;;;;;;;;;4978957;28;20150;-64
2022/10/05 07:04:02;;;;;;;8.82;8.23;;;;;;;;;;4971135;28;20477;-64
2022/10/05 07:06:36;;;;;;;9.65;8.85;;;;;;;;;;4977798;28;20487;-64
2022/10/05 07:09:25;;;;;;;10.00;9.30;;;;;;;;;;4975655;28;20311;-64
2022/10/05 07:12:18;;;;;;;9.23;8.52;;;;;;;;;;4978197;28;20593;-63
2022/10/05 07:15:17;;;;;;;9.27;8.43;;;;;;;;;;4979405;28;20027;-64
2022/10/05 07:17:51;;;;;;;10.48;9.68;;;;;;;;;;4976135;28;20026;-64
2022/10/05 07:20:44;;;;;;;10.05;9.13;;;;;;;;;;4976148;28;20034;-64
2022/10/05 07:23:36;;;;;;;10.88;10.18;;;;;;;;;;4975251;28;20039;-64
2022/10/05 07:26:31;;;;;;;8.80;8.20;;;;;;;;;;4975174;28;20034;-64
2022/10/05 07:29:05;;;;;;;8.65;8.02;;;;;;;;;;4975461;28;20046;-64
2022/10/05 07:31:52;;;;;;;10.48;9.68;;;;;;;;;;4982105;28;20497;-64
2022/10/05 07:34:23;;;;;;;11.00;10.10;;;;;;;;;;4977457;28;20026;-64
2022/10/05 07:40:02;;;;;;;10.95;10.20;;;;;;;;;;4979738;28;20185;-63
2022/10/05 07:42:39;;;;;;;10.20;9.48;;;;;;;;;;4979401;28;20083;-63
2022/10/05 07:45:42;;;;;;;10.68;9.88;;;;;;;;;;4981031;28;20034;-64
2022/10/05 07:48:21;;;;;;;12.82;11.43;;;;;;;;;;4981768;28;20053;-63
2022/10/05 07:50:58;;;;;;;14.05;12.90;;;;;;;;;;4977736;28;20046;-63
2022/10/05 07:53:37;;;;;;;13.65;12.30;;;;;;;;;;4981644;28;20187;-64
2022/10/05 07:56:14;;;;;;;12.57;11.55;;;;;;;;;;4981081;28;20042;-64
2022/10/05 07:58:43;;;;;;;12.90;11.88;;;;;;;;;;4976766;28;20030;-64
2022/10/05 08:01:12;;;;;;;15.20;13.80;;;;;;;;;;4979324;28;20255;-64
2022/10/05 08:03:48;;;;;;;13.43;12.15;;;;;;;;;;4978347;28;20121;-64
2022/10/05 08:06:45;;;;;;;13.00;11.98;;;;;;;;;;4980534;28;20034;-64
2022/10/05 08:09:38;;;;;;;11.68;10.63;;;;;;;;;;4979428;28;20439;-63
2022/10/05 08:12:17;;;;;;;10.98;10.18;;;;;;;;;;4996313;28;20367;-64
2022/10/05 08:14:51;;;;;;;10.18;9.27;;;;;;;;;;4982012;28;20384;-64
2022/10/05 08:17:39;;;;;;;11.45;10.55;;;;;;;;;;4980579;28;20364;-64
2022/10/05 08:20:20;;;;;;;10.05;9.35;;;;;;;;;;4976060;28;20477;-63
2022/10/05 08:22:49;;;;;;;11.60;10.70;;;;;;;;;;4980930;28;20030;-63
2022/10/05 08:25:29;;;;;;;12.98;12.07;;;;;;;;;;4977895;28;20659;-64
2022/10/05 08:28:37;;;;;;;10.43;9.63;;;;;;;;;;4976637;28;20088;-64
2022/10/05 08:31:23;;;;;;;13.32;12.23;;;;;;;;;;4974597;28;20087;-63
2022/10/05 08:33:55;;;;;;;10.27;9.52;;;;;;;;;;4976911;28;20042;-64
2022/10/05 08:36:38;;;;;;;11.25;10.43;;;;;;;;;;4977932;28;20340;-64
2022/10/05 08:39:11;;;;;;;12.60;11.73;;;;;;;;;;4981365;28;20154;-64
2022/10/05 08:42:02;;;;;;;15.40;14.30;;;;;;;;;;4978965;28;20484;-64
2022/10/05 08:44:31;;;;;;;15.40;14.30;;;;;;;;;;4977218;28;20053;-63
2022/10/05 08:47:13;;;;;;;16.10;15.02;;;;;;;;;;4978704;28;20030;-64
2022/10/05 08:50:06;;;;;;;15.55;14.45;;;;;;;;;;4984285;28;20234;-64
2022/10/05 08:53:02;;;;;;;13.85;12.90;;;;;;;;;;4977419;28;20026;-64
2022/10/05 08:55:35;;;;;;;17.60;16.50;;;;;;;;;;4976961;28;20407;-64
2022/10/05 08:58:02;;;;;;;19.17;17.67;;;;;;;;;;4977529;28;20035;-64
2022/10/05 09:01:02;;;;;;;18.20;17.10;;;;;;;;;;4977889;28;20202;-63
2022/10/05 09:03:54;;;;;;;17.27;15.98;;;;;;;;;;4960195;28;20046;-64
2022/10/05 09:06:47;;;;;;;16.83;15.63;;;;;;;;;;4978124;28;20346;-63
2022/10/05 09:10:00;;;;;;;19.05;17.80;;;;;;;;;;4978156;28;20031;-64
2022/10/05 09:12:50;;;;;;;19.23;18.02;;;;;;;;;;4942584;28;20086;-64
2022/10/05 09:15:57;;;;;;;23.40;22.00;;;;;;;;;;4980076;28;20050;-65
2022/10/05 09:18:34;;;;;;;26.02;24.33;;;;;;;;;;4936823;28;20047;-64
2022/10/05 09:21:31;;;;;;;25.45;23.85;;;;;;;;;;4974223;28;20120;-64
2022/10/05 09:24:11;;;;;;;22.73;21.40;;;;;;;;;;4992541;28;20030;-63
2022/10/05 09:26:39;;;;;;;27.17;25.52;;;;;;;;;;4976583;28;20041;-63
2022/10/05 09:29:28;;;;;;;24.77;23.33;;;;;;;;;;4979893;28;20369;-64
2022/10/05 09:32:19;;;;;;;27.15;25.35;;;;;;;;;;4974889;28;20077;-64
2022/10/05 09:35:07;;;;;;;22.98;21.58;;;;;;;;;;4981254;28;20058;-64
2022/10/05 09:37:44;;;;;;;26.60;24.88;;;;;;;;;;4977733;28;20096;-64
2022/10/05 09:40:35;;;;;;;23.75;22.30;;;;;;;;;;4976544;28;20096;-64
2022/10/05 09:43:34;;;;;;;23.35;21.77;;;;;;;;;;4977839;28;20026;-64
2022/10/05 09:46:31;;;;;;;24.90;22.95;;;;;;;;;;4960869;28;20071;-64
2022/10/05 09:49:25;;;;;;;21.17;19.58;;;;;;;;;;4972182;28;20341;-64
2022/10/05 09:52:00;;;;;;;20.75;19.25;;;;;;;;;;4972377;28;20575;-66
2022/10/05 09:55:04;;;;;;;22.23;20.73;;;;;;;;;;4990306;28;20629;-65
2022/10/05 09:57:51;;;;;;;20.15;18.70;;;;;;;;;;4978186;28;20027;-66
2022/10/05 10:00:46;;;;;;;19.98;18.02;;;;;;;;;;4979027;28;20085;-65
2022/10/05 10:03:49;;;;;;;17.48;16.17;;;;;;;;;;4975912;28;20041;-66
2022/10/05 10:06:29;;;;;;;16.48;15.18;;;;;;;;;;4977436;28;20037;-67
2022/10/05 10:09:13;;;;;;;19.67;18.13;;;;;;;;;;4976579;28;20129;-66
2022/10/05 10:11:44;;;;;;;18.23;16.73;;;;;;;;;;4974081;28;20074;-66
2022/10/05 10:14:17;;;;;;;13.82;12.82;;;;;;;;;;4976203;28;20050;-69
2022/10/05 10:17:20;;;;;;;14.88;13.57;;;;;;;;;;4975467;28;20141;-68
2022/10/05 10:20:04;;;;;;;12.18;11.23;;;;;;;;;;4975203;28;20078;-66
2022/10/05 10:22:59;;;;;;;12.75;11.63;;;;;;;;;;4974176;28;20436;-63
2022/10/05 10:25:56;;;;;;;9.88;9.13;;;;;;;;;;4976239;28;20064;-66
2022/10/05 10:28:38;;;;;;;9.85;9.15;;;;;;;;;;4976813;28;20082;-67
2022/10/05 10:31:04;;;;;;;8.82;8.23;;;;;;;;;;4975660;28;20046;-67
2022/10/05 10:33:57;;;;;;;9.88;9.10;;;;;;;;;;4974130;28;20052;-66
2022/10/05 10:37:01;;;;;;;8.75;8.05;;;;;;;;;;4974547;28;20392;-66
2022/10/05 10:40:04;;;;;;;10.35;9.65;;;;;;;;;;4992057;28;20531;-66
2022/10/05 10:42:45;;;;;;;12.65;11.75;;;;;;;;;;4973610;28;20049;-66
2022/10/05 10:45:19;;;;;;;10.13;9.43;;;;;;;;;;4982419;28;20054;-67
2022/10/05 10:48:08;;;;;;;12.85;12.02;;;;;;;;;;4974799;28;20564;-67
2022/10/05 10:50:55;;;;;;;15.27;14.07;;;;;;;;;;4974591;28;20071;-62
2022/10/05 10:53:56;;;;;;;18.73;17.63;;;;;;;;;;4990910;28;20027;-63
2022/10/05 10:56:33;;;;;;;20.25;18.95;;;;;;;;;;4976084;28;20031;-63
2022/10/05 10:59:47;;;;;;;23.48;22.17;;;;;;;;;;4974775;28;20372;-63
2022/10/05 11:02:41;;;;;;;23.10;21.80;;;;;;;;;;4974742;28;20428;-62
2022/10/05 11:05:35;;;;;;;24.52;23.17;;;;;;;;;;4973261;28;20419;-63
2022/10/05 11:08:05;;;;;;;20.67;19.48;;;;;;;;;;4976463;28;20384;-63
2022/10/05 11:10:49;;;;;;;28.05;26.55;;;;;;;;;;4991597;28;20037;-64
2022/10/05 11:13:40;;;;;;;27.27;25.77;;;;;;;;;;4975710;28;20041;-64
2022/10/05 11:16:47;;;;;;;27.48;26.00;;;;;;;;;;4963024;28;20038;-63
2022/10/05 11:19:42;;;;;;;24.08;22.73;;;;;;;;;;4975959;28;20109;-63
2022/10/05 11:22:24;;;;;;;23.98;22.70;;;;;;;;;;4978139;28;20848;-63
2022/10/05 11:25:07;;;;;;;27.98;26.48;;;;;;;;;;4991011;28;20038;-62
2022/10/05 11:27:45;;;;;;;22.85;21.55;;;;;;;;;;4974675;28;20181;-61
2022/10/05 11:30:25;;;;;;;19.40;18.30;;;;;;;;;;4977872;28;20041;-60
2022/10/05 11:33:16;;;;;;;17.55;16.55;;;;;;;;;;4978039;28;20057;-63
2022/10/05 11:36:05;;;;;;;15.63;14.75;;;;;;;;;;4978734;28;20034;-63
2022/10/05 11:39:12;;;;;;;17.50;16.50;;;;;;;;;;4976549;28;20030;-63
2022/10/05 11:42:07;;;;;;;14.85;13.95;;;;;;;;;;4979109;28;20034;-62
2022/10/05 11:45:17;;;;;;;13.95;13.15;;;;;;;;;;4975576;28;20034;-62
2022/10/05 11:47:50;;;;;;;12.90;12.10;;;;;;;;;;4975189;28;20034;-62
2022/10/05 11:50:16;;;;;;;15.70;14.80;;;;;;;;;;4973675;28;20047;-64
2022/10/05 11:52:45;;;;;;;15.18;14.30;;;;;;;;;;4976369;28;20092;-64
2022/10/05 11:55:22;;;;;;;17.02;15.93;;;;;;;;;;4979792;28;20030;-63
2022/10/05 11:57:53;;;;;;;17.95;16.95;;;;;;;;;;4976373;28;20046;-62
2022/10/05 12:00:21;;;;;;;17.83;16.73;;;;;;;;;;4971345;28;20065;-62
2022/10/05 12:03:08;;;;;;;18.98;17.73;;;;;;;;;;4976316;28;20087;-62
2022/10/05 12:06:11;;;;;;;18.58;17.55;;;;;;;;;;4976156;28;20038;-61
2022/10/05 12:08:47;;;;;;;16.75;15.75;;;;;;;;;;4981658;28;20125;-62
2022/10/05 12:11:42;;;;;;;18.00;16.98;;;;;;;;;;4980849;28;20030;-61
2022/10/05 12:14:23;;;;;;;16.20;15.27;;;;;;;;;;4975395;28;20046;-64
2022/10/05 12:16:57;;;;;;;18.08;16.90;;;;;;;;;;4979573;28;20074;-63
2022/10/05 12:19:33;;;;;;;18.10;17.10;;;;;;;;;;4979785;28;20046;-63
2022/10/05 12:22:20;;;;;;;18.23;17.23;;;;;;;;;;4978844;28;20045;-63
2022/10/05 12:25:05;;;;;;;15.80;14.90;;;;;;;;;;4980861;28;20039;-63
2022/10/05 12:27:43;;;;;;;20.55;19.25;;;;;;;;;;4979681;28;20051;-62
2022/10/05 12:30:11;;;;;;;17.83;16.83;;;;;;;;;;4981709;28;20401;-64
2022/10/05 12:32:54;;;;;;;18.58;17.58;;;;;;;;;;4977990;28;20031;-62
2022/10/05 12:35:33;;;;;;;18.08;17.08;;;;;;;;;;4982678;28;20118;-63
2022/10/05 12:38:27;;;;;;;27.30;19.92;;;;;;;;;;4978988;28;20034;-62
2022/10/05 12:41:03;;;;;;;17.27;16.30;;;;;;;;;;4978917;28;20349;-62
2022/10/05 12:43:31;;;;;;;15.50;14.50;;;;;;;;;;4978604;28;20034;-63
2022/10/05 12:46:19;;;;;;;18.15;17.05;;;;;;;;;;4981406;28;20060;-63
2022/10/05 12:49:09;;;;;;;17.02;16.02;;;;;;;;;;4995066;28;20396;-62
2022/10/05 12:51:48;;;;;;;20.90;19.63;;;;;;;;;;4978442;28;20049;-62
2022/10/05 12:54:32;;;;;;;18.20;17.20;;;;;;;;;;4978937;28;20086;-62
2022/10/05 12:56:59;;;;;;;16.67;15.68;;;;;;;;;;4977825;28;20052;-62
2022/10/05 12:59:40;;;;;;;19.83;18.35;;;;;;;;;;4978159;28;20109;-63
2022/10/05 13:02:41;;;;;;;19.13;18.08;;;;;;;;;;4981339;28;20038;-64
2022/10/05 13:05:09;;;;;;;21.05;19.25;;;;;;;;;;4979340;28;20031;-62
2022/10/05 13:08:07;;;;;;;19.88;18.75;;;;;;;;;;4974987;28;20039;-63
2022/10/05 13:10:39;;;;;;;16.85;15.90;;;;;;;;;;4978979;28;20066;-62
2022/10/05 13:13:26;;;;;;;20.25;19.10;;;;;;;;;;4978868;28;20174;-64
2022/10/05 13:16:10;;;;;;;22.08;20.88;;;;;;;;;;4976129;28;20043;-63
2022/10/05 13:19:03;;;;;;;19.92;18.80;;;;;;;;;;4978415;28;20133;-64
2022/10/05 13:21:56;;;;;;;20.40;19.20;;;;;;;;;;4978997;28;20040;-64
2022/10/05 13:24:26;;;;;;;19.33;18.23;;;;;;;;;;4976407;28;20034;-63
2022/10/05 13:26:58;;;;;;;19.98;18.85;;;;;;;;;;4978815;28;20061;-63
2022/10/05 13:29:28;;;;;;;21.48;20.20;;;;;;;;;;4979477;28;20085;-63
2022/10/05 13:31:59;;;;;;;22.27;20.98;;;;;;;;;;4979290;28;20026;-63
2022/10/05 13:34:53;;;;;;;20.15;19.05;;;;;;;;;;4974841;28;20045;-63
2022/10/05 13:37:45;;;;;;;18.85;17.65;;;;;;;;;;4978010;28;20045;-65
2022/10/05 13:40:38;;;;;;;19.23;18.13;;;;;;;;;;4980064;28;20038;-63
2022/10/05 13:43:19;;;;;;;19.48;18.38;;;;;;;;;;4976512;28;20038;-64
2022/10/05 13:46:03;;;;;;;;;;;;;;;;;;4975033;28;20035;-64
2022/10/05 13:49:07;;;;;;;14.73;13.82;;;;;;;;;;4975298;28;20368;-64
2022/10/05 13:51:44;;;;;;;17.63;16.58;;;;;;;;;;4978628;28;20026;-63
2022/10/05 13:54:19;;;;;;;18.27;17.17;;;;;;;;;;4979352;28;20065;-63
2022/10/05 13:56:53;;;;;;;19.58;18.42;;;;;;;;;;4983754;28;20035;-63
2022/10/05 13:59:30;;;;;;;19.25;18.15;;;;;;;;;;4980739;28;20128;-63
2022/10/05 14:02:03;;;;;;;19.33;18.25;;;;;;;;;;4980339;28;20058;-64
2022/10/05 14:04:43;;;;;;;19.75;18.65;;;;;;;;;;4975949;28;20034;-64
2022/10/05 14:07:46;;;;;;;20.17;19.00;;;;;;;;;;4975887;28;20070;-63
2022/10/05 14:10:13;;;;;;;16.85;15.85;;;;;;;;;;4959471;28;20282;-63
2022/10/05 14:12:42;;;;;;;19.80;18.67;;;;;;;;;;4977526;28;20038;-64
2022/10/05 14:15:33;;;;;;;20.50;19.38;;;;;;;;;;4978161;28;20033;-63
2022/10/05 14:17:59;;;;;;;19.15;18.05;;;;;;;;;;4972441;28;20050;-65
2022/10/05 14:20:30;;;;;;;22.40;21.20;;;;;;;;;;4980708;28;20492;-65
2022/10/05 14:23:13;;;;;;;19.20;18.10;;;;;;;;;;4979950;28;20046;-65
2022/10/05 14:25:52;;;;;;;20.33;19.10;;;;;;;;;;4981771;28;20268;-65
2022/10/05 14:28:31;;;;;;;21.10;19.90;;;;;;;;;;4975019;28;20491;-66
2022/10/05 14:31:45;;;;;;;22.58;21.17;;;;;;;;;;4975459;28;20034;-65
2022/10/05 14:34:29;;;;;;;20.80;19.67;;;;;;;;;;4955348;28;20054;-66
2022/10/05 14:37:03;;;;;;;18.33;17.30;;;;;;;;;;4977297;28;20488;-66
2022/10/05 14:39:32;;;;;;;20.60;19.40;;;;;;;;;;4977613;28;20408;-66
2022/10/05 14:42:10;;;;;;;23.73;22.45;;;;;;;;;;4979590;28;20034;-66
2022/10/05 14:44:36;;;;;;;25.13;23.75;;;;;;;;;;4976685;28;20142;-66
2022/10/05 14:47:15;;;;;;;24.05;22.75;;;;;;;;;;4973889;28;20488;-66
2022/10/05 14:50:14;;;;;;;23.65;22.38;;;;;;;;;;4973627;28;20137;-67
2022/10/05 14:52:45;;;;;;;24.23;22.92;;;;;;;;;;4972057;28;20491;-67
2022/10/05 14:55:22;;;;;;;22.65;21.25;;;;;;;;;;4975696;28;20682;-67
2022/10/05 14:58:09;;;;;;;22.30;21.10;;;;;;;;;;4974480;28;20048;-66
2022/10/05 15:00:45;;;;;;;22.50;21.30;;;;;;;;;;4974347;28;20076;-66
2022/10/05 15:03:38;;;;;;;22.42;21.08;;;;;;;;;;4977078;28;20038;-66
2022/10/05 15:06:10;;;;;;;24.02;22.73;;;;;;;;;;4971537;28;20038;-66
2022/10/05 15:09:05;;;;;;;24.48;23.17;;;;;;;;;;4977481;28;20335;-66
2022/10/05 15:11:41;;;;;;;20.58;19.48;;;;;;;;;;4973136;28;20038;-66
2022/10/05 15:14:16;;;;;;;22.60;21.33;;;;;;;;;;4974331;28;20469;-67
2022/10/05 15:16:41;;;;;;;25.25;23.95;;;;;;;;;;4977957;28;20058;-67
2022/10/05 15:19:19;;;;;;;24.27;22.88;;;;;;;;;;4978677;28;20034;-67
2022/10/05 15:22:05;;;;;;;22.35;21.15;;;;;;;;;;4973339;28;20137;-66
2022/10/05 15:24:35;;;;;;;22.65;21.35;;;;;;;;;;4972515;28;20205;-66
2022/10/05 15:27:03;;;;;;;23.95;22.48;;;;;;;;;;4974795;28;20030;-66
2022/10/05 15:30:00;;;;;;;24.08;22.77;;;;;;;;;;4976255;28;20073;-66
2022/10/05 15:32:40;;;;;;;22.90;21.70;;;;;;;;;;4978244;28;20038;-65
2022/10/05 15:35:35;;;;;;;23.63;22.02;;;;;;;;;;4972026;28;20085;-66
2022/10/05 15:38:10;;;;;;;20.83;19.67;;;;;;;;;;4977626;28;20356;-65
2022/10/05 15:40:45;;;;;;;22.23;20.92;;;;;;;;;;4973884;28;20326;-66
2022/10/05 15:43:15;;;;;;;22.45;21.25;;;;;;;;;;4977922;28;20164;-66
2022/10/05 15:46:02;;;;;;;22.85;21.42;;;;;;;;;;4979085;28;20532;-65
2022/10/05 15:48:53;;;;;;;19.08;18.00;;;;;;;;;;4980585;28;20041;-66
2022/10/05 15:51:26;;;;;;;18.30;17.30;;;;;;;;;;4975217;28;20512;-65
2022/10/05 15:57:12;;;;;;;16.05;15.15;;;;;;;;;;4979599;28;20038;-66
2022/10/05 15:59:57;;;;;;;16.05;15.05;;;;;;;;;;4982009;28;20046;-66